Terminal Aerodrome Forecast
Issued by NWS Nashville, TN

Home | Current Version | Previous Version | Text Only | Print | Product List | Glossary On
Versions: 1 2 3 4 5 6 7 8 9 10 11 12 13 14 15 16
000
FTUS44 KOHX 220200 AAB
TAFCSV
TAF AMD
KCSV 220200Z 2202/2224 29004KT P6SM VCSH BKN050 OVC080
     FM220300 00000KT P6SM SKC
     FM220900 00000KT 3SM BR SKC
     FM221100 25006KT P6SM SKC=

USA.gov is the U.S. government's official web portal to all federal, state and local government web resources and services.